Time;durP1;ratioP1;P1;durP2;ratioP2;P2;SDS_P1;SDS_P2;PMS_P1;PMS_P2;Temp;Humidity;BMP_temperature;BMP_pressure;BME280_temperature;BME280_humidity;BME280_pressure;Samples;Min_cycle;Max_cycle;Signal;HPM_P1;HPM_P2
2021/12/19 00:01:10;;;;;;;12.32;5.80;;;;;;;5.35;100.00;99733.16;10362327;28;20050;-58
2021/12/19 00:11:36;;;;;;;11.43;5.70;;;;;;;5.39;100.00;99697.28;10364791;28;20064;-60
2021/12/19 00:16:39;;;;;;;11.70;5.70;;;;;;;5.38;100.00;99698.22;10367801;28;20532;-57
2021/12/19 00:21:44;;;;;;;9.60;5.10;;;;;;;5.38;100.00;99686.66;10347170;28;20077;-60
2021/12/19 00:26:47;;;;;;;10.10;5.20;;;;;;;5.40;100.00;99679.41;10367360;28;20117;-58
2021/12/19 00:31:50;;;;;;;12.23;5.90;;;;;;;5.42;100.00;99681.97;10346834;28;20050;-58
2021/12/19 00:36:55;;;;;;;8.48;5.82;;;;;;;5.39;100.00;99675.91;10358894;28;20046;-54
2021/12/19 00:41:58;;;;;;;12.40;5.60;;;;;;;5.36;100.00;99669.88;10364260;28;20041;-58
2021/12/19 00:47:07;;;;;;;11.45;5.65;;;;;;;5.39;100.00;99667.00;10378876;28;20658;-59
2021/12/19 00:52:13;;;;;;;11.10;5.70;;;;;;;5.40;100.00;99663.38;10364472;28;20070;-59
2021/12/19 00:57:16;;;;;;;12.93;6.28;;;;;;;5.38;100.00;99662.63;10363042;28;20054;-62
2021/12/19 01:02:20;;;;;;;9.15;6.00;;;;;;;5.37;100.00;99658.22;10362629;28;20165;-65
2021/12/19 01:07:25;;;;;;;10.73;5.72;;;;;;;5.39;100.00;99642.94;10361294;28;20038;-56
2021/12/19 01:12:28;;;;;;;13.98;6.10;;;;;;;5.37;100.00;99647.53;10361562;28;20568;-56
2021/12/19 01:17:31;;;;;;;12.35;6.25;;;;;;;5.34;100.00;99645.06;10360174;28;20113;-59
2021/12/19 01:22:36;;;;;;;11.02;5.20;;;;;;;5.34;100.00;99637.91;10363849;28;20050;-57
2021/12/19 01:27:39;;;;;;;11.73;5.80;;;;;;;5.33;100.00;99644.19;10362517;28;20037;-60
2021/12/19 01:32:43;;;;;;;10.80;5.68;;;;;;;5.34;100.00;99637.06;10344317;28;20054;-60
2021/12/19 01:37:48;;;;;;;10.68;5.47;;;;;;;5.31;100.00;99647.94;10341191;28;20049;-59
2021/12/19 01:42:54;;;;;;;14.63;5.95;;;;;;;5.31;100.00;99639.91;10362859;28;20046;-65
2021/12/19 01:48:00;;;;;;;10.32;5.40;;;;;;;5.27;100.00;99622.34;10365199;28;20402;-64
2021/12/19 01:53:07;;;;;;;10.25;5.20;;;;;;;5.28;100.00;99618.72;10355132;28;20085;-61
2021/12/19 01:58:10;;;;;;;12.80;5.60;;;;;;;5.25;100.00;99611.78;10358949;28;20508;-61
2021/12/19 02:03:16;;;;;;;11.52;5.65;;;;;;;5.23;100.00;99603.84;10360156;28;20391;-59
2021/12/19 02:08:22;;;;;;;10.20;5.40;;;;;;;5.23;100.00;99592.31;10369046;28;20050;-63
2021/12/19 02:13:25;;;;;;;13.68;6.80;;;;;;;5.24;100.00;99591.34;10362110;28;20057;-57
2021/12/19 02:18:28;;;;;;;11.93;6.50;;;;;;;5.21;100.00;99584.41;10361023;28;20357;-59
2021/12/19 02:23:33;;;;;;;12.25;7.32;;;;;;;5.19;100.00;99585.44;10368436;28;21040;-60
2021/12/19 02:28:36;;;;;;;11.30;7.22;;;;;;;5.19;100.00;99580.97;10359253;28;20044;-55
2021/12/19 02:33:43;;;;;;;12.27;7.82;;;;;;;5.17;100.00;99566.00;10362689;28;20137;-62
2021/12/19 02:49:33;;;;;;;14.52;6.70;;;;;;;5.05;100.00;99551.59;10358163;28;20042;-60
2021/12/19 02:54:38;;;;;;;14.27;6.97;;;;;;;5.09;100.00;99542.44;10362537;28;20158;-59
2021/12/19 02:59:41;;;;;;;11.13;6.40;;;;;;;5.03;100.00;99530.34;10367878;28;20144;-61
2021/12/19 03:04:53;;;;;;;14.98;7.15;;;;;;;5.06;100.00;99531.94;10365358;28;20564;-66
2021/12/19 03:10:17;;;;;;;13.05;8.00;;;;;;;5.06;100.00;99510.56;10358679;28;20050;-59
2021/12/19 03:20:43;;;;;;;12.57;8.07;;;;;;;5.05;100.00;99479.47;10367269;28;20045;-69
2021/12/19 03:25:50;;;;;;;13.63;7.65;;;;;;;5.01;100.00;99499.31;10371699;28;20165;-59
2021/12/19 03:30:54;;;;;;;18.45;8.95;;;;;;;5.01;100.00;99483.28;10401738;28;20046;-62
2021/12/19 03:35:57;;;;;;;16.88;8.90;;;;;;;5.03;100.00;99481.38;10394902;28;20518;-63
2021/12/19 03:41:14;;;;;;;15.65;9.50;;;;;;;5.01;100.00;99476.16;10390019;28;20512;-62
2021/12/19 03:46:17;;;;;;;18.35;9.45;;;;;;;4.99;100.00;99491.41;10374203;28;20056;-59
2021/12/19 03:51:20;;;;;;;20.30;9.93;;;;;;;5.02;100.00;99479.66;10365517;28;20124;-59
2021/12/19 03:56:25;;;;;;;16.30;9.55;;;;;;;4.97;100.00;99463.09;10365466;28;20051;-62
2021/12/19 04:01:28;;;;;;;18.13;10.45;;;;;;;4.95;100.00;99463.19;10347577;28;20104;-61
2021/12/19 04:06:31;;;;;;;18.80;10.55;;;;;;;4.94;100.00;99453.47;10362365;28;20466;-59
2021/12/19 04:11:37;;;;;;;21.60;11.90;;;;;;;4.91;100.00;99445.66;10361599;28;20129;-60
2021/12/19 04:16:42;;;;;;;21.05;10.82;;;;;;;4.92;100.00;99437.53;10362943;28;20041;-60
2021/12/19 04:21:47;;;;;;;19.75;11.35;;;;;;;4.89;100.00;99437.75;10370039;28;20443;-57
2021/12/19 04:26:52;;;;;;;19.55;11.23;;;;;;;4.87;100.00;99420.97;10365629;28;20491;-58
2021/12/19 04:31:56;;;;;;;16.15;10.45;;;;;;;4.85;100.00;99408.66;10363384;28;20042;-63
2021/12/19 04:37:07;;;;;;;20.65;12.18;;;;;;;4.85;100.00;99401.53;10365089;28;20049;-63
2021/12/19 04:53:32;;;;;;;20.40;12.47;;;;;;;4.81;100.00;99378.66;10359744;28;21368;-64
2021/12/19 05:04:10;;;;;;;25.55;14.02;;;;;;;4.81;100.00;99365.31;10367629;28;20512;-63
2021/12/19 05:14:38;;;;;;;24.73;14.27;;;;;;;4.74;100.00;99372.84;10362938;28;20050;-63
2021/12/19 05:19:50;;;;;;;19.45;13.15;;;;;;;4.82;100.00;99379.53;10344438;28;20052;-63
2021/12/19 05:25:01;;;;;;;22.35;13.70;;;;;;;4.83;100.00;99371.41;10361355;28;20058;-63
2021/12/19 05:30:07;;;;;;;21.60;13.07;;;;;;;4.83;100.00;99384.75;10360536;28;20038;-63
2021/12/19 05:35:16;;;;;;;21.67;13.77;;;;;;;4.81;100.00;99367.97;10360948;28;20053;-63
2021/12/19 05:45:41;;;;;;;22.63;13.20;;;;;;;4.77;100.00;99361.97;10362293;28;20512;-58
2021/12/19 05:50:44;;;;;;;22.58;13.52;;;;;;;4.76;100.00;99362.09;10361236;28;20050;-63
2021/12/19 05:55:48;;;;;;;18.80;12.32;;;;;;;4.74;100.00;99377.34;10359877;28;20120;-57
2021/12/19 06:00:52;;;;;;;21.58;12.85;;;;;;;4.72;100.00;99371.25;10363590;28;20050;-61
2021/12/19 06:05:55;;;;;;;20.60;12.30;;;;;;;4.73;100.00;99372.97;10367897;28;20470;-60
2021/12/19 06:10:58;;;;;;;20.42;12.55;;;;;;;4.74;100.00;99361.34;10360249;28;20037;-61
2021/12/19 06:16:03;;;;;;;19.02;11.50;;;;;;;4.71;100.00;99362.38;10342769;28;20137;-63
2021/12/19 06:21:06;;;;;;;20.52;13.35;;;;;;;4.70;100.00;99365.16;10358970;28;20113;-60
2021/12/19 06:26:10;;;;;;;18.95;13.10;;;;;;;4.69;100.00;99348.28;10354180;28;21350;-61
2021/12/19 06:31:17;;;;;;;17.48;11.95;;;;;;;4.69;100.00;99350.09;10363114;28;20040;-59
2021/12/19 06:36:20;;;;;;;20.30;12.65;;;;;;;4.69;100.00;99332.28;10358269;28;20037;-63
2021/12/19 06:41:23;;;;;;;22.80;12.50;;;;;;;4.71;100.00;99334.84;10338054;28;20056;-63
2021/12/19 06:46:28;;;;;;;17.83;12.43;;;;;;;4.70;100.00;99341.13;10358038;28;20410;-64
2021/12/19 06:51:31;;;;;;;19.15;12.93;;;;;;;4.71;100.00;99351.69;10346964;28;20061;-61
2021/12/19 06:56:35;;;;;;;19.85;12.20;;;;;;;4.69;100.00;99363.44;10355794;28;20042;-60
2021/12/19 07:01:41;;;;;;;20.70;13.43;;;;;;;4.69;100.00;99368.78;10358172;28;20057;-61
2021/12/19 07:06:44;;;;;;;17.48;11.63;;;;;;;4.69;100.00;99358.09;10334446;28;20487;-60
2021/12/19 07:11:47;;;;;;;17.17;12.60;;;;;;;4.66;100.00;99360.97;10339448;28;20060;-61
2021/12/19 07:16:52;;;;;;;16.90;11.65;;;;;;;4.68;100.00;99367.94;10351240;28;20125;-61
2021/12/19 07:21:55;;;;;;;17.17;11.77;;;;;;;4.71;100.00;99350.84;10363635;28;20457;-63
2021/12/19 07:26:58;;;;;;;18.10;12.73;;;;;;;4.73;100.00;99348.94;10359808;28;20052;-61
2021/12/19 07:32:03;;;;;;;18.70;12.50;;;;;;;4.72;100.00;99337.38;10354112;28;20038;-56
2021/12/19 07:37:06;;;;;;;18.70;12.05;;;;;;;4.72;100.00;99341.88;10348898;28;20042;-62
2021/12/19 07:42:11;;;;;;;17.75;11.90;;;;;;;4.70;100.00;99328.66;10351162;28;20049;-64
2021/12/19 07:47:16;;;;;;;16.20;10.77;;;;;;;4.71;100.00;99329.50;10351435;28;20038;-57
2021/12/19 07:52:19;;;;;;;15.07;11.05;;;;;;;4.71;100.00;99342.84;10364436;28;20054;-61
2021/12/19 07:57:23;;;;;;;17.15;11.15;;;;;;;4.68;100.00;99319.88;10353095;28;20040;-61
2021/12/19 08:02:28;;;;;;;14.43;10.52;;;;;;;4.62;100.00;99334.50;10365806;28;20376;-63
2021/12/19 08:07:32;;;;;;;13.75;9.93;;;;;;;4.62;100.00;99322.94;10353637;28;20046;-63
2021/12/19 08:12:36;;;;;;;13.18;8.65;;;;;;;4.60;100.00;99328.38;10351508;28;20136;-63
2021/12/19 08:17:41;;;;;;;12.50;8.70;;;;;;;4.63;100.00;99335.34;10359272;28;20052;-62
2021/12/19 08:22:46;;;;;;;11.65;8.63;;;;;;;4.61;100.00;99331.91;10355958;28;20128;-61
2021/12/19 08:27:49;;;;;;;10.82;7.72;;;;;;;4.58;100.00;99334.78;10354529;28;20042;-61
2021/12/19 08:32:56;;;;;;;12.55;8.00;;;;;;;4.58;100.00;99330.28;10360148;28;20092;-62
2021/12/19 08:37:59;;;;;;;10.13;7.03;;;;;;;4.57;100.00;99317.91;10355289;28;20050;-61
2021/12/19 08:43:05;;;;;;;9.80;6.60;;;;;;;4.55;100.00;99302.97;10358916;28;20491;-62
2021/12/19 08:48:11;;;;;;;9.00;6.13;;;;;;;4.54;100.00;99298.56;10365516;28;20033;-60
2021/12/19 08:53:15;;;;;;;9.20;6.53;;;;;;;4.55;100.00;99298.47;10348278;28;20062;-64
2021/12/19 08:58:18;;;;;;;8.98;6.32;;;;;;;4.55;100.00;99303.81;10344726;28;20034;-62
2021/12/19 09:03:23;;;;;;;7.97;5.57;;;;;;;4.55;100.00;99293.13;10357123;28;20847;-63
2021/12/19 09:08:27;;;;;;;8.07;5.82;;;;;;;4.57;100.00;99285.03;10367370;28;20485;-63
2021/12/19 09:13:30;;;;;;;8.15;5.40;;;;;;;4.58;100.00;99281.41;10363732;28;20528;-64
2021/12/19 09:18:35;;;;;;;7.72;5.38;;;;;;;4.62;100.00;99282.91;10365980;28;20073;-63
2021/12/19 09:23:39;;;;;;;7.10;5.22;;;;;;;4.63;100.00;99271.28;10367790;28;20050;-64
2021/12/19 09:28:44;;;;;;;7.97;5.30;;;;;;;4.66;100.00;99296.91;10364257;28;20104;-62
2021/12/19 09:33:49;;;;;;;9.70;5.88;;;;;;;4.69;100.00;99289.56;10364755;28;20046;-65
2021/12/19 09:38:54;;;;;;;7.28;5.30;;;;;;;4.74;100.00;99275.91;10366617;28;20042;-62
2021/12/19 09:44:02;;;;;;;8.57;5.68;;;;;;;4.76;100.00;99260.66;10374747;28;20137;-63
2021/12/19 09:49:08;;;;;;;8.05;5.95;;;;;;;4.76;100.00;99245.47;10362486;28;20053;-62
2021/12/19 09:54:12;;;;;;;9.02;6.07;;;;;;;4.77;100.00;99243.63;10371940;28;20097;-62
2021/12/19 09:59:23;;;;;;;7.93;5.78;;;;;;;4.76;100.00;99247.28;10368262;28;20061;-61
2021/12/19 10:04:37;;;;;;;6.95;5.38;;;;;;;4.77;100.00;99227.63;10348686;28;20534;-61
2021/12/19 10:09:51;;;;;;;7.03;5.15;;;;;;;4.76;100.00;99236.63;10365867;28;20164;-61
2021/12/19 10:14:55;;;;;;;6.18;4.47;;;;;;;4.74;100.00;99225.19;10364816;28;20053;-63
2021/12/19 10:20:02;;;;;;;6.82;4.50;;;;;;;4.73;100.00;99212.78;10367996;28;20156;-63
2021/12/19 10:25:20;;;;;;;4.82;3.92;;;;;;;4.68;100.00;99206.91;10383401;28;20081;-60
2021/12/19 10:30:26;;;;;;;5.97;3.83;;;;;;;4.70;100.00;99199.66;10377092;28;20556;-61
2021/12/19 10:35:35;;;;;;;4.72;3.45;;;;;;;4.68;100.00;99193.56;10359527;28;20559;-63
2021/12/19 10:40:38;;;;;;;6.93;3.45;;;;;;;4.67;100.00;99178.50;10370066;28;20042;-64
2021/12/19 10:45:45;;;;;;;4.53;3.38;;;;;;;4.69;100.00;99179.25;10360587;28;20060;-63
2021/12/19 10:50:53;;;;;;;5.15;3.47;;;;;;;4.66;100.00;99195.47;10364267;28;20057;-62
2021/12/19 10:55:58;;;;;;;5.90;3.33;;;;;;;4.66;100.00;99147.41;10342211;28;20489;-64
2021/12/19 11:01:08;;;;;;;5.70;3.30;;;;;;;4.67;100.00;99149.13;10363113;28;20066;-64
2021/12/19 11:06:17;;;;;;;5.13;3.63;;;;;;;4.71;100.00;99130.13;10360448;28;20052;-61
2021/12/19 11:11:42;;;;;;;5.68;3.25;;;;;;;4.72;100.00;99128.31;10367880;28;20052;-63
2021/12/19 11:16:46;;;;;;;4.33;2.97;;;;;;;4.71;100.00;99113.28;10351095;28;20137;-58
2021/12/19 11:21:52;;;;;;;4.50;3.15;;;;;;;4.72;100.00;99112.31;10365033;28;20979;-62
2021/12/19 11:26:59;;;;;;;4.95;3.20;;;;;;;4.72;100.00;99107.81;10365396;28;20045;-64
2021/12/19 11:32:06;;;;;;;5.32;3.05;;;;;;;4.75;100.00;99094.25;10367584;28;20121;-63
2021/12/19 11:37:15;;;;;;;5.05;3.08;;;;;;;4.72;100.00;99089.13;10370244;28;20549;-64
2021/12/19 11:42:21;;;;;;;4.68;3.05;;;;;;;4.76;100.00;99076.44;10367305;28;20495;-65
2021/12/19 11:47:42;;;;;;;4.82;3.17;;;;;;;4.76;100.00;99082.63;10368902;28;20066;-65
2021/12/19 11:52:51;;;;;;;4.30;3.13;;;;;;;4.77;100.00;99068.31;10369390;28;20115;-65
2021/12/19 11:58:19;;;;;;;6.30;3.05;;;;;;;4.77;100.00;99070.13;10351496;28;20384;-65
2021/12/19 12:03:32;;;;;;;3.70;3.00;;;;;;;4.82;100.00;99051.97;10370365;28;20050;-65
2021/12/19 12:08:40;;;;;;;4.18;3.05;;;;;;;4.81;100.00;99036.91;10364096;28;20414;-63
2021/12/19 12:13:47;;;;;;;3.67;2.55;;;;;;;4.84;100.00;99034.03;10346291;28;20046;-63
2021/12/19 12:18:58;;;;;;;5.97;2.95;;;;;;;4.83;100.00;99029.66;10364175;28;20537;-65
2021/12/19 12:24:07;;;;;;;5.80;2.92;;;;;;;4.86;100.00;99018.75;10364824;28;20034;-65
2021/12/19 12:29:19;;;;;;;4.10;2.80;;;;;;;4.86;100.00;99008.09;10383165;28;20038;-65
2021/12/19 12:34:34;;;;;;;3.17;2.67;;;;;;;4.87;100.00;99009.78;10404488;28;20077;-65
2021/12/19 12:39:42;;;;;;;3.60;2.50;;;;;;;4.90;100.00;99014.06;10400530;28;20089;-65
2021/12/19 12:44:49;;;;;;;2.95;2.60;;;;;;;4.87;100.00;99025.81;10357374;28;20890;-64
2021/12/19 12:49:54;;;;;;;3.20;2.40;;;;;;;4.89;100.00;99012.34;10335388;28;20132;-65
2021/12/19 12:55:04;;;;;;;3.63;2.60;;;;;;;4.86;100.00;99001.88;10351527;28;20137;-65
2021/12/19 13:00:18;;;;;;;3.60;2.42;;;;;;;4.87;100.00;99009.78;10361395;28;20068;-65
2021/12/19 13:05:24;;;;;;;4.50;2.50;;;;;;;4.87;100.00;99003.59;10342689;28;20049;-65
2021/12/19 13:10:31;;;;;;;2.42;1.98;;;;;;;4.86;100.00;99008.09;10352774;28;20119;-63
2021/12/19 13:15:35;;;;;;;2.80;2.17;;;;;;;4.89;100.00;98999.81;10356159;28;20074;-64
2021/12/19 13:20:39;;;;;;;3.10;2.10;;;;;;;4.93;100.00;99009.34;10341555;28;20640;-64
2021/12/19 13:25:45;;;;;;;2.53;2.10;;;;;;;4.90;100.00;99001.53;10356902;28;20042;-64
2021/12/19 13:30:50;;;;;;;2.70;2.10;;;;;;;4.90;100.00;98996.19;10341003;28;20061;-64
2021/12/19 13:35:58;;;;;;;2.70;2.05;;;;;;;4.88;100.00;98991.94;10354617;28;20045;-65
2021/12/19 13:41:05;;;;;;;4.47;2.30;;;;;;;4.87;100.00;98999.13;10353059;28;20042;-64
2021/12/19 13:46:10;;;;;;;3.65;2.70;;;;;;;4.92;100.00;98996.09;10351931;28;20042;-64
2021/12/19 13:51:20;;;;;;;3.05;2.38;;;;;;;4.89;100.00;98981.13;10354538;28;20104;-64
2021/12/19 13:56:29;;;;;;;4.35;2.20;;;;;;;4.87;100.00;98972.41;10347136;28;20057;-64
2021/12/19 14:01:36;;;;;;;2.80;2.05;;;;;;;4.86;100.00;98957.34;10357620;28;20125;-65
2021/12/19 14:13:04;;;;;;;2.50;1.73;;;;;;;4.86;100.00;98954.69;10353772;28;20112;-63
2021/12/19 14:18:27;;;;;;;2.90;1.80;;;;;;;4.91;100.00;98960.53;10353556;28;20060;-64
2021/12/19 14:23:38;;;;;;;3.60;1.60;;;;;;;4.91;100.00;98957.84;10354819;28;20077;-63
2021/12/19 14:28:50;;;;;;;3.50;1.63;;;;;;;4.92;100.00;98943.53;10354149;28;20097;-65
2021/12/19 14:33:55;;;;;;;2.63;1.55;;;;;;;4.89;100.00;98943.75;10354935;28;20034;-65
2021/12/19 14:39:00;;;;;;;2.97;1.60;;;;;;;4.90;100.00;98964.16;10358529;28;20038;-65
2021/12/19 14:44:20;;;;;;;2.63;1.50;;;;;;;4.87;100.00;98951.06;10359244;28;20038;-65
2021/12/19 14:49:23;;;;;;;5.40;1.65;;;;;;;4.93;100.00;98949.75;10357094;28;20054;-65
2021/12/19 14:54:26;;;;;;;2.88;1.77;;;;;;;4.99;100.00;98924.41;10349098;28;20446;-65
2021/12/19 14:59:31;;;;;;;2.50;1.52;;;;;;;4.96;100.00;98944.16;10364866;28;20137;-64
2021/12/19 15:04:34;;;;;;;2.13;1.40;;;;;;;4.94;100.00;98927.41;10337353;28;20141;-64
2021/12/19 15:09:38;;;;;;;2.40;1.42;;;;;;;4.95;100.00;98918.44;10350371;28;20129;-64
2021/12/19 15:14:43;;;;;;;1.40;1.30;;;;;;;4.97;100.00;98918.31;10320105;28;20053;-62
2021/12/19 15:19:49;;;;;;;3.05;1.30;;;;;;;4.97;100.00;98902.31;10343111;28;20126;-66
2021/12/19 15:24:52;;;;;;;1.65;1.30;;;;;;;4.98;100.00;98899.50;10362736;28;20046;-63
2021/12/19 15:29:57;;;;;;;2.00;1.15;;;;;;;4.95;100.00;98894.41;10350491;28;20042;-65
2021/12/19 15:35:00;;;;;;;2.20;1.20;;;;;;;4.94;100.00;98909.56;10358683;28;20066;-62
2021/12/19 15:40:06;;;;;;;1.33;1.10;;;;;;;4.91;100.00;98893.78;10365905;28;20057;-62
2021/12/19 15:45:11;;;;;;;1.65;0.95;;;;;;;4.89;100.00;98902.88;10356670;28;20416;-64
2021/12/19 15:50:15;;;;;;;0.82;0.82;;;;;;;4.87;100.00;98891.44;10354075;28;20054;-62
2021/12/19 15:55:18;;;;;;;1.20;1.00;;;;;;;4.85;100.00;98893.38;10364807;28;20485;-63
2021/12/19 16:00:25;;;;;;;2.22;1.10;;;;;;;4.83;100.00;98896.16;10361280;28;20417;-61
2021/12/19 16:05:29;;;;;;;2.60;1.17;;;;;;;4.82;100.00;98910.47;10362512;28;20052;-63
2021/12/19 16:10:33;;;;;;;3.33;1.05;;;;;;;4.81;100.00;98913.28;10364149;28;20041;-66
2021/12/19 16:15:38;;;;;;;2.55;1.30;;;;;;;4.84;100.00;98918.38;10362525;28;20119;-64
2021/12/19 16:20:41;;;;;;;2.10;1.48;;;;;;;4.81;100.00;98911.44;10367187;28;20080;-63
2021/12/19 16:25:44;;;;;;;1.80;1.30;;;;;;;4.82;100.00;98909.63;10364815;28;20453;-64
2021/12/19 16:30:49;;;;;;;2.50;1.20;;;;;;;4.79;100.00;98910.69;10365182;28;20156;-67
2021/12/19 16:35:58;;;;;;;3.03;1.42;;;;;;;4.79;100.00;98913.38;10366048;28;20921;-63
2021/12/19 16:41:04;;;;;;;2.63;1.50;;;;;;;4.81;100.00;98911.44;10363591;28;20045;-61
2021/12/19 16:46:12;;;;;;;3.75;1.50;;;;;;;4.83;100.00;98906.84;10359805;28;20047;-64
2021/12/19 16:51:15;;;;;;;2.47;1.30;;;;;;;4.83;100.00;98919.31;10348596;28;20129;-60
2021/12/19 16:56:19;;;;;;;1.67;1.42;;;;;;;4.81;100.00;98915.94;10355667;28;20069;-59
2021/12/19 17:01:24;;;;;;;3.55;1.63;;;;;;;4.82;100.00;98920.31;10351102;28;20038;-63
2021/12/19 17:06:29;;;;;;;3.17;1.85;;;;;;;4.81;100.00;98930.13;10353256;28;20077;-64
2021/12/19 17:11:35;;;;;;;2.92;1.60;;;;;;;4.82;100.00;98928.31;10352854;28;20049;-61
2021/12/19 17:16:43;;;;;;;3.25;1.83;;;;;;;4.80;100.00;98922.25;10360365;28;20052;-59
2021/12/19 17:21:49;;;;;;;3.85;1.48;;;;;;;4.77;100.00;98913.50;10355104;28;20237;-62
2021/12/19 17:26:58;;;;;;;4.30;1.60;;;;;;;4.78;100.00;98925.00;10348450;28;20065;-63
2021/12/19 17:32:06;;;;;;;3.88;1.63;;;;;;;4.78;100.00;98946.34;10350895;28;20070;-63
2021/12/19 17:37:13;;;;;;;4.05;1.80;;;;;;;4.78;100.00;98951.69;10347237;28;20073;-63
2021/12/19 17:42:17;;;;;;;2.88;1.63;;;;;;;4.77;100.00;98933.97;10330543;28;20046;-61
2021/12/19 17:47:23;;;;;;;1.90;1.70;;;;;;;4.77;100.00;98931.31;10350194;28;20046;-60
2021/12/19 17:52:27;;;;;;;2.45;1.70;;;;;;;4.74;100.00;98928.88;10353929;28;20054;-61
2021/12/19 17:57:31;;;;;;;2.65;1.70;;;;;;;4.74;100.00;98936.88;10355615;28;20045;-58
2021/12/19 18:02:37;;;;;;;2.03;1.80;;;;;;;4.72;100.00;98931.63;10356369;28;20128;-58
2021/12/19 18:07:43;;;;;;;5.53;1.90;;;;;;;4.76;100.00;98921.63;10355222;28;20382;-63
2021/12/19 18:12:47;;;;;;;3.90;2.00;;;;;;;4.77;100.00;98923.28;10361507;28;20071;-61
2021/12/19 18:17:54;;;;;;;4.50;1.92;;;;;;;4.76;100.00;98926.97;10362905;28;20488;-63
2021/12/19 18:23:50;;;;;;;2.38;1.75;;;;;;;4.80;100.00;98919.56;10343526;28;20042;-64
2021/12/19 18:28:57;;;;;;;6.07;2.35;;;;;;;4.79;100.00;98916.03;10364545;28;20490;-64
2021/12/19 18:34:11;;;;;;;4.53;1.90;;;;;;;4.82;100.00;98925.66;10367002;28;20129;-62
2021/12/19 18:39:17;;;;;;;4.25;1.80;;;;;;;4.82;100.00;98921.16;10346931;28;20042;-62
2021/12/19 18:44:27;;;;;;;5.68;2.22;;;;;;;4.80;100.00;98922.25;10368365;28;20049;-61
2021/12/19 18:49:37;;;;;;;3.10;2.38;;;;;;;4.79;100.00;98921.38;10356215;28;20056;-62
2021/12/19 18:54:49;;;;;;;7.32;2.40;;;;;;;4.82;100.00;98909.63;10368124;28;20267;-64
2021/12/19 18:59:52;;;;;;;4.30;2.03;;;;;;;4.84;100.00;98907.69;10373495;28;20121;-63
2021/12/19 19:05:02;;;;;;;4.40;2.22;;;;;;;4.84;100.00;98892.53;10352623;28;20052;-60
2021/12/19 19:10:08;;;;;;;3.95;1.98;;;;;;;4.87;100.00;98900.31;10360696;28;20038;-66
2021/12/19 19:15:23;;;;;;;6.50;2.03;;;;;;;4.86;100.00;98895.06;10369147;28;20493;-65
2021/12/19 19:20:29;;;;;;;7.60;1.70;;;;;;;4.86;100.00;98885.28;10342169;28;20053;-64
2021/12/19 19:25:33;;;;;;;4.32;1.73;;;;;;;4.87;100.00;98895.00;10365956;28;20044;-65
2021/12/19 19:30:37;;;;;;;6.75;2.10;;;;;;;4.88;100.00;98885.97;10361829;28;20689;-63
2021/12/19 19:35:43;;;;;;;4.60;2.00;;;;;;;4.82;100.00;98889.13;10365434;28;20045;-65
2021/12/19 19:40:57;;;;;;;5.97;2.05;;;;;;;4.78;100.00;98898.31;10360071;28;20038;-64
2021/12/19 19:51:29;;;;;;;6.55;1.90;;;;;;;4.75;100.00;98895.88;10356442;28;20054;-64
2021/12/19 19:56:38;;;;;;;8.65;1.80;;;;;;;4.77;100.00;98902.81;10356615;28;20482;-60
2021/12/19 20:01:51;;;;;;;4.90;1.88;;;;;;;4.77;100.00;98884.13;10356932;28;20041;-64
2021/12/19 20:07:02;;;;;;;9.05;2.20;;;;;;;4.74;100.00;98878.16;10352786;28;20703;-67
2021/12/19 20:12:10;;;;;;;11.95;2.20;;;;;;;4.70;100.00;98866.00;10356846;28;20564;-63
2021/12/19 20:17:17;;;;;;;8.48;2.05;;;;;;;4.62;100.00;98859.41;10339983;28;20411;-64
2021/12/19 20:22:25;;;;;;;5.03;2.00;;;;;;;4.56;100.00;98875.88;10332410;28;20042;-62
2021/12/19 20:27:31;;;;;;;6.47;2.08;;;;;;;4.42;100.00;98862.66;10354743;28;20050;-64
2021/12/19 20:32:36;;;;;;;5.35;2.10;;;;;;;4.35;100.00;98856.91;10358913;28;20117;-65
2021/12/19 20:37:42;;;;;;;7.35;2.20;;;;;;;4.25;100.00;98853.22;10356935;28;20381;-65
2021/12/19 20:42:47;;;;;;;6.57;2.05;;;;;;;4.16;100.00;98860.94;10362699;28;20042;-63
2021/12/19 20:47:53;;;;;;;7.97;2.40;;;;;;;4.09;100.00;98872.13;10357995;28;20050;-63
2021/12/19 20:52:59;;;;;;;11.88;1.90;;;;;;;4.07;100.00;98882.06;10355496;28;20041;-63
2021/12/19 20:58:05;;;;;;;7.00;2.30;;;;;;;4.05;100.00;98889.34;10348710;28;20197;-64
2021/12/19 21:03:10;;;;;;;9.45;2.20;;;;;;;4.04;100.00;98893.78;10348612;28;20030;-65
2021/12/19 21:08:17;;;;;;;12.55;2.40;;;;;;;4.05;100.00;98884.84;10352830;28;20085;-62
2021/12/19 21:13:29;;;;;;;10.73;1.98;;;;;;;4.10;100.00;98884.50;10388212;28;20030;-62
2021/12/19 21:23:56;;;;;;;9.23;1.77;;;;;;;4.12;100.00;98888.75;10338881;28;19926;-64
2021/12/19 21:29:01;;;;;;;10.57;1.80;;;;;;;4.08;100.00;98895.28;10332831;28;20379;-66
2021/12/19 21:34:07;;;;;;;8.85;2.00;;;;;;;4.02;100.00;98906.38;10351623;28;20046;-66
2021/12/19 21:39:14;;;;;;;14.02;2.20;;;;;;;3.99;100.00;98912.78;10356162;28;20042;-64
2021/12/19 21:44:20;;;;;;;9.82;1.90;;;;;;;4.03;100.00;98907.25;10357403;28;20126;-64
2021/12/19 21:49:25;;;;;;;9.52;1.77;;;;;;;4.05;100.00;98914.16;10352424;28;20053;-63
2021/12/19 21:54:30;;;;;;;11.60;1.83;;;;;;;4.01;100.00;98915.31;10356517;28;20837;-64
2021/12/19 21:59:34;;;;;;;9.35;1.92;;;;;;;3.96;100.00;98920.97;10349873;28;20043;-61
2021/12/19 22:04:39;;;;;;;13.63;2.30;;;;;;;3.95;100.00;98926.44;10350573;28;20307;-61
2021/12/19 22:09:46;;;;;;;11.13;2.30;;;;;;;3.93;100.00;98931.00;10355036;28;20053;-61
2021/12/19 22:20:12;;;;;;;13.57;2.17;;;;;;;3.95;100.00;98932.59;10348207;28;20052;-63
2021/12/19 22:25:18;;;;;;;12.73;2.15;;;;;;;3.92;100.00;98930.19;10338109;28;20035;-64
2021/12/19 22:30:31;;;;;;;16.73;2.95;;;;;;;3.94;100.00;98935.38;10337906;28;20084;-66
2021/12/19 22:35:37;;;;;;;12.60;2.42;;;;;;;3.92;100.00;98932.84;10343793;28;20046;-63
2021/12/19 22:40:42;;;;;;;18.63;2.78;;;;;;;3.92;100.00;98937.31;10343906;28;20064;-63
2021/12/19 22:45:46;;;;;;;13.63;2.42;;;;;;;3.84;100.00;98936.03;10344582;28;20065;-65
2021/12/19 22:50:52;;;;;;;15.20;2.63;;;;;;;3.85;100.00;98931.53;10335702;28;20062;-65
2021/12/19 22:55:57;;;;;;;13.82;2.40;;;;;;;3.81;100.00;98941.56;10345545;28;20042;-65
2021/12/19 23:01:05;;;;;;;18.85;3.05;;;;;;;3.80;100.00;98945.19;10356844;28;20057;-67
2021/12/19 23:06:13;;;;;;;20.15;2.88;;;;;;;3.78;100.00;98955.09;10324537;28;20068;-64
2021/12/19 23:11:54;;;;;;;16.70;2.95;;;;;;;3.71;100.00;98948.50;10347895;28;20117;-63
2021/12/19 23:17:06;;;;;;;17.73;3.15;;;;;;;3.72;100.00;98936.00;10327098;28;20048;-62
2021/12/19 23:22:09;;;;;;;19.90;2.63;;;;;;;3.72;100.00;98941.34;10352531;28;20042;-64
2021/12/19 23:27:15;;;;;;;24.92;3.38;;;;;;;3.64;100.00;98942.72;10345425;28;20424;-64
2021/12/19 23:32:19;;;;;;;20.40;2.97;;;;;;;3.66;100.00;98943.47;10336240;28;20041;-65
2021/12/19 23:37:30;;;;;;;23.98;3.50;;;;;;;3.60;100.00;98951.88;10337102;28;20050;-64
2021/12/19 23:42:52;;;;;;;23.97;3.20;;;;;;;3.45;100.00;98955.59;10348661;28;20042;-62
2021/12/19 23:47:55;;;;;;;;;;;;;;;3.36;100.00;98976.53;10352549;28;20240;-57
2021/12/19 23:52:58;;;;;;;25.63;4.07;;;;;;;3.32;100.00;98967.06;10348167;28;20012;-63
2021/12/19 23:58:03;;;;;;;24.10;3.63;;;;;;;3.27;100.00;98963.84;10347895;28;20052;-63
